sensor_id;sensor_type;location;lat;lon;timestamp;pressure;altitude;pressure_sealevel;temperature
79053;BMP280;68451;49.510;6.026;2023-12-07T00:00:00;98245.59;;;1.84
79053;BMP280;68451;49.510;6.026;2023-12-07T00:02:27;98417.97;;;2.92
79053;BMP280;68451;49.510;6.026;2023-12-07T00:04:54;98418.94;;;2.91
79053;BMP280;68451;49.510;6.026;2023-12-07T00:07:21;98326.75;;;2.37
79053;BMP280;68451;49.510;6.026;2023-12-07T00:09:48;98354.00;;;2.55
79053;BMP280;68451;49.510;6.026;2023-12-07T00:12:14;98359.16;;;2.72
79053;BMP280;68451;49.510;6.026;2023-12-07T00:14:41;98395.56;;;2.93
79053;BMP280;68451;49.510;6.026;2023-12-07T00:17:08;98394.28;;;2.89
79053;BMP280;68451;49.510;6.026;2023-12-07T00:19:35;98351.25;;;2.65
79053;BMP280;68451;49.510;6.026;2023-12-07T00:22:02;98406.19;;;3.06
79053;BMP280;68451;49.510;6.026;2023-12-07T00:24:29;98381.53;;;2.87
79053;BMP280;68451;49.510;6.026;2023-12-07T00:26:57;98392.03;;;2.94
79053;BMP280;68451;49.510;6.026;2023-12-07T00:29:24;98402.47;;;3.00
79053;BMP280;68451;49.510;6.026;2023-12-07T00:31:50;98389.09;;;3.05
79053;BMP280;68451;49.510;6.026;2023-12-07T00:34:18;98333.06;;;2.66
79053;BMP280;68451;49.510;6.026;2023-12-07T00:36:45;98392.97;;;3.01
79053;BMP280;68451;49.510;6.026;2023-12-07T00:39:12;98386.88;;;2.94
79053;BMP280;68451;49.510;6.026;2023-12-07T00:41:39;98323.72;;;2.49
79053;BMP280;68451;49.510;6.026;2023-12-07T00:44:06;98364.63;;;2.68
79053;BMP280;68451;49.510;6.026;2023-12-07T00:46:33;98389.28;;;2.79
79053;BMP280;68451;49.510;6.026;2023-12-07T00:48:59;98363.81;;;2.60
79053;BMP280;68451;49.510;6.026;2023-12-07T00:51:27;98370.44;;;2.54
79053;BMP280;68451;49.510;6.026;2023-12-07T00:53:54;98381.88;;;2.52
79053;BMP280;68451;49.510;6.026;2023-12-07T00:56:21;98372.03;;;2.47
79053;BMP280;68451;49.510;6.026;2023-12-07T00:58:48;98379.44;;;2.50
79053;BMP280;68451;49.510;6.026;2023-12-07T01:01:15;98194.53;;;1.31
79053;BMP280;68451;49.510;6.026;2023-12-07T01:03:42;98333.69;;;2.12
79053;BMP280;68451;49.510;6.026;2023-12-07T01:06:09;98390.88;;;2.48
79053;BMP280;68451;49.510;6.026;2023-12-07T01:08:38;98149.75;;;0.92
79053;BMP280;68451;49.510;6.026;2023-12-07T01:11:05;98340.75;;;2.10
79053;BMP280;68451;49.510;6.026;2023-12-07T01:13:32;98380.72;;;2.30
79053;BMP280;68451;49.510;6.026;2023-12-07T01:15:59;98411.03;;;2.44
79053;BMP280;68451;49.510;6.026;2023-12-07T01:18:26;98372.81;;;2.23
79053;BMP280;68451;49.510;6.026;2023-12-07T01:20:53;98371.72;;;2.26
79053;BMP280;68451;49.510;6.026;2023-12-07T01:23:20;98416.66;;;2.56
79053;BMP280;68451;49.510;6.026;2023-12-07T01:25:47;98423.28;;;2.58
79053;BMP280;68451;49.510;6.026;2023-12-07T01:28:14;98391.69;;;2.32
79053;BMP280;68451;49.510;6.026;2023-12-07T01:30:41;98424.06;;;2.51
79053;BMP280;68451;49.510;6.026;2023-12-07T01:33:08;98422.63;;;2.48
79053;BMP280;68451;49.510;6.026;2023-12-07T01:35:35;98401.19;;;2.32
79053;BMP280;68451;49.510;6.026;2023-12-07T01:38:01;98406.81;;;2.35
79053;BMP280;68451;49.510;6.026;2023-12-07T01:40:28;98401.50;;;2.37
79053;BMP280;68451;49.510;6.026;2023-12-07T01:42:55;98363.78;;;2.11
79053;BMP280;68451;49.510;6.026;2023-12-07T01:45:23;98406.81;;;2.35
79053;BMP280;68451;49.510;6.026;2023-12-07T01:47:51;98423.59;;;2.47
79053;BMP280;68451;49.510;6.026;2023-12-07T01:50:20;98050.56;;;0.15
79053;BMP280;68451;49.510;6.026;2023-12-07T01:52:54;98386.50;;;2.16
79053;BMP280;68451;49.510;6.026;2023-12-07T01:55:24;98374.41;;;2.08
79053;BMP280;68451;49.510;6.026;2023-12-07T01:57:51;98376.03;;;2.09
79053;BMP280;68451;49.510;6.026;2023-12-07T02:00:19;98403.75;;;2.32
79053;BMP280;68451;49.510;6.026;2023-12-07T02:02:46;98375.88;;;2.19
79053;BMP280;68451;49.510;6.026;2023-12-07T02:05:14;98385.22;;;2.28
79053;BMP280;68451;49.510;6.026;2023-12-07T02:07:41;98394.28;;;2.40
79053;BMP280;68451;49.510;6.026;2023-12-07T02:10:10;98385.56;;;2.41
79053;BMP280;68451;49.510;6.026;2023-12-07T02:12:37;98395.56;;;2.44
79053;BMP280;68451;49.510;6.026;2023-12-07T02:15:04;98395.72;;;2.35
79053;BMP280;68451;49.510;6.026;2023-12-07T02:17:50;98056.97;;;0.19
79053;BMP280;68451;49.510;6.026;2023-12-07T02:20:43;98418.09;;;2.26
79053;BMP280;68451;49.510;6.026;2023-12-07T02:23:12;98397.41;;;2.10
79053;BMP280;68451;49.510;6.026;2023-12-07T02:25:44;98366.81;;;1.91
79053;BMP280;68451;49.510;6.026;2023-12-07T02:28:14;98404.84;;;2.13
79053;BMP280;68451;49.510;6.026;2023-12-07T02:30:41;98337.44;;;1.59
79053;BMP280;68451;49.510;6.026;2023-12-07T02:33:08;98393.84;;;1.95
79053;BMP280;68451;49.510;6.026;2023-12-07T02:35:37;98316.09;;;1.33
79053;BMP280;68451;49.510;6.026;2023-12-07T02:38:06;98353.66;;;1.52
79053;BMP280;68451;49.510;6.026;2023-12-07T02:40:34;98419.25;;;1.90
79053;BMP280;68451;49.510;6.026;2023-12-07T02:43:01;98376.97;;;1.58
79053;BMP280;68451;49.510;6.026;2023-12-07T02:45:30;98256.03;;;0.74
79053;BMP280;68451;49.510;6.026;2023-12-07T02:47:57;98409.50;;;1.59
79053;BMP280;68451;49.510;6.026;2023-12-07T02:50:25;98424.63;;;1.70
79053;BMP280;68451;49.510;6.026;2023-12-07T02:52:52;98428.69;;;1.73
79053;BMP280;68451;49.510;6.026;2023-12-07T02:55:19;98319.66;;;1.06
79053;BMP280;68451;49.510;6.026;2023-12-07T02:57:46;98345.59;;;1.21
79053;BMP280;68451;49.510;6.026;2023-12-07T03:00:13;98346.22;;;1.15
79053;BMP280;68451;49.510;6.026;2023-12-07T03:02:41;98372.38;;;1.36
79053;BMP280;68451;49.510;6.026;2023-12-07T03:05:08;98437.16;;;1.65
79053;BMP280;68451;49.510;6.026;2023-12-07T03:07:35;98362.97;;;1.19
79053;BMP280;68451;49.510;6.026;2023-12-07T03:10:02;98402.34;;;1.45
79053;BMP280;68451;49.510;6.026;2023-12-07T03:12:30;98368.66;;;1.30
79053;BMP280;68451;49.510;6.026;2023-12-07T03:14:57;98227.22;;;0.37
79053;BMP280;68451;49.510;6.026;2023-12-07T03:17:24;98398.41;;;1.33
79053;BMP280;68451;49.510;6.026;2023-12-07T03:19:51;98343.88;;;0.96
79053;BMP280;68451;49.510;6.026;2023-12-07T03:22:18;98388.13;;;1.33
79053;BMP280;68451;49.510;6.026;2023-12-07T03:24:46;98353.66;;;0.92
79053;BMP280;68451;49.510;6.026;2023-12-07T03:27:14;98383.78;;;1.08
79053;BMP280;68451;49.510;6.026;2023-12-07T03:29:41;98410.06;;;1.19
79053;BMP280;68451;49.510;6.026;2023-12-07T03:32:08;98387.03;;;1.10
79053;BMP280;68451;49.510;6.026;2023-12-07T03:34:35;98171.91;;;-0.27
79053;BMP280;68451;49.510;6.026;2023-12-07T03:37:02;98380.13;;;1.10
79053;BMP280;68451;49.510;6.026;2023-12-07T03:39:29;98329.63;;;0.75
79053;BMP280;68451;49.510;6.026;2023-12-07T03:41:59;98355.91;;;0.95
79053;BMP280;68451;49.510;6.026;2023-12-07T03:44:26;98369.78;;;1.02
79053;BMP280;68451;49.510;6.026;2023-12-07T03:46:53;98358.66;;;0.94
79053;BMP280;68451;49.510;6.026;2023-12-07T03:49:20;98383.50;;;1.11
79053;BMP280;68451;49.510;6.026;2023-12-07T03:51:47;98397.63;;;1.07
79053;BMP280;68451;49.510;6.026;2023-12-07T03:54:13;98421.19;;;1.20
79053;BMP280;68451;49.510;6.026;2023-12-07T03:56:40;98404.06;;;1.11
79053;BMP280;68451;49.510;6.026;2023-12-07T03:59:07;98355.88;;;0.87
79053;BMP280;68451;49.510;6.026;2023-12-07T04:01:34;98264.94;;;0.36
79053;BMP280;68451;49.510;6.026;2023-12-07T04:04:01;98370.94;;;1.08
79053;BMP280;68451;49.510;6.026;2023-12-07T04:06:28;98356.41;;;0.99
79053;BMP280;68451;49.510;6.026;2023-12-07T04:08:55;98365.16;;;1.06
79053;BMP280;68451;49.510;6.026;2023-12-07T04:11:22;98409.81;;;1.30
79053;BMP280;68451;49.510;6.026;2023-12-07T04:13:49;98390.00;;;1.23
79053;BMP280;68451;49.510;6.026;2023-12-07T04:16:16;98035.75;;;-0.95
79053;BMP280;68451;49.510;6.026;2023-12-07T04:18:43;98354.22;;;1.12
79053;BMP280;68451;49.510;6.026;2023-12-07T04:21:10;98390.81;;;1.23
79053;BMP280;68451;49.510;6.026;2023-12-07T04:23:37;98397.84;;;1.21
79053;BMP280;68451;49.510;6.026;2023-12-07T04:26:04;98424.16;;;1.33
79053;BMP280;68451;49.510;6.026;2023-12-07T04:28:31;98378.94;;;1.05
79053;BMP280;68451;49.510;6.026;2023-12-07T04:30:58;98362.72;;;1.04
79053;BMP280;68451;49.510;6.026;2023-12-07T04:33:25;98393.06;;;1.26
79053;BMP280;68451;49.510;6.026;2023-12-07T04:35:52;98284.53;;;0.63
79053;BMP280;68451;49.510;6.026;2023-12-07T04:38:19;98348.38;;;0.94
79053;BMP280;68451;49.510;6.026;2023-12-07T04:40:46;98365.16;;;1.06
79053;BMP280;68451;49.510;6.026;2023-12-07T04:43:12;98362.25;;;1.09
79053;BMP280;68451;49.510;6.026;2023-12-07T04:45:39;98358.06;;;1.08
79053;BMP280;68451;49.510;6.026;2023-12-07T04:48:06;98233.75;;;0.31
79053;BMP280;68451;49.510;6.026;2023-12-07T04:50:34;98398.53;;;1.23
79053;BMP280;68451;49.510;6.026;2023-12-07T04:53:01;98407.34;;;1.21
79053;BMP280;68451;49.510;6.026;2023-12-07T04:55:28;98400.28;;;1.23
79053;BMP280;68451;49.510;6.026;2023-12-07T04:57:55;98402.25;;;1.29
79053;BMP280;68451;49.510;6.026;2023-12-07T05:00:22;98376.28;;;1.14
79053;BMP280;68451;49.510;6.026;2023-12-07T05:02:49;98409.16;;;1.28
79053;BMP280;68451;49.510;6.026;2023-12-07T05:05:17;98417.06;;;1.35
79053;BMP280;68451;49.510;6.026;2023-12-07T05:07:44;98358.34;;;0.97
79053;BMP280;68451;49.510;6.026;2023-12-07T05:10:11;98360.31;;;1.03
79053;BMP280;68451;49.510;6.026;2023-12-07T05:12:38;98249.00;;;0.33
79053;BMP280;68451;49.510;6.026;2023-12-07T05:15:06;98395.13;;;1.23
79053;BMP280;68451;49.510;6.026;2023-12-07T05:17:33;98388.94;;;1.08
79053;BMP280;68451;49.510;6.026;2023-12-07T05:20:00;98389.91;;;1.07
79053;BMP280;68451;49.510;6.026;2023-12-07T05:22:28;98275.94;;;0.47
79053;BMP280;68451;49.510;6.026;2023-12-07T05:24:55;98304.16;;;0.64
79053;BMP280;68451;49.510;6.026;2023-12-07T05:27:22;98335.69;;;0.74
79053;BMP280;68451;49.510;6.026;2023-12-07T05:29:49;98276.63;;;0.31
79053;BMP280;68451;49.510;6.026;2023-12-07T05:32:16;98398.84;;;1.20
79053;BMP280;68451;49.510;6.026;2023-12-07T05:34:44;98359.97;;;0.98
79053;BMP280;68451;49.510;6.026;2023-12-07T05:37:11;98423.53;;;1.39
79053;BMP280;68451;49.510;6.026;2023-12-07T05:39:38;98411.56;;;1.30
79053;BMP280;68451;49.510;6.026;2023-12-07T05:42:05;98400.28;;;1.23
79053;BMP280;68451;49.510;6.026;2023-12-07T05:44:32;98381.75;;;1.11
79053;BMP280;68451;49.510;6.026;2023-12-07T05:47:00;98237.75;;;0.26
79053;BMP280;68451;49.510;6.026;2023-12-07T05:49:26;98401.56;;;1.19
79053;BMP280;68451;49.510;6.026;2023-12-07T05:51:54;98396.84;;;1.14
79053;BMP280;68451;49.510;6.026;2023-12-07T05:54:21;98351.03;;;0.84
79053;BMP280;68451;49.510;6.026;2023-12-07T05:56:49;98388.88;;;1.00
79053;BMP280;68451;49.510;6.026;2023-12-07T05:59:16;98396.00;;;1.06
79053;BMP280;68451;49.510;6.026;2023-12-07T06:01:43;98346.97;;;0.81
79053;BMP280;68451;49.510;6.026;2023-12-07T06:04:10;98415.13;;;1.29
79053;BMP280;68451;49.510;6.026;2023-12-07T06:06:39;98374.72;;;0.96
79053;BMP280;68451;49.510;6.026;2023-12-07T06:09:06;98246.19;;;0.18
79053;BMP280;68451;49.510;6.026;2023-12-07T06:11:34;98398.94;;;1.11
79053;BMP280;68451;49.510;6.026;2023-12-07T06:14:01;98395.38;;;1.12
79053;BMP280;68451;49.510;6.026;2023-12-07T06:16:30;98340.25;;;0.63
79053;BMP280;68451;49.510;6.026;2023-12-07T06:18:57;98400.50;;;0.86
79053;BMP280;68451;49.510;6.026;2023-12-07T06:21:24;98298.06;;;0.22
79053;BMP280;68451;49.510;6.026;2023-12-07T06:23:53;98392.16;;;0.84
79053;BMP280;68451;49.510;6.026;2023-12-07T06:26:20;98363.19;;;0.56
79053;BMP280;68451;49.510;6.026;2023-12-07T06:28:47;98413.09;;;0.89
79053;BMP280;68451;49.510;6.026;2023-12-07T06:31:14;98400.81;;;0.83
79053;BMP280;68451;49.510;6.026;2023-12-07T06:33:42;98427.25;;;0.93
79053;BMP280;68451;49.510;6.026;2023-12-07T06:36:10;98425.50;;;0.94
79053;BMP280;68451;49.510;6.026;2023-12-07T06:38:38;98395.63;;;0.75
79053;BMP280;68451;49.510;6.026;2023-12-07T06:41:05;98378.97;;;0.61
79053;BMP280;68451;49.510;6.026;2023-12-07T06:43:32;98399.34;;;0.80
79053;BMP280;68451;49.510;6.026;2023-12-07T06:45:59;98364.19;;;0.63
79053;BMP280;68451;49.510;6.026;2023-12-07T06:48:26;98395.88;;;0.89
79053;BMP280;68451;49.510;6.026;2023-12-07T06:50:53;98420.22;;;1.03
79053;BMP280;68451;49.510;6.026;2023-12-07T06:53:20;98372.63;;;0.73
79053;BMP280;68451;49.510;6.026;2023-12-07T06:55:47;98381.66;;;0.77
79053;BMP280;68451;49.510;6.026;2023-12-07T06:58:14;98143.91;;;-0.73
79053;BMP280;68451;49.510;6.026;2023-12-07T07:00:41;98396.63;;;0.82
79053;BMP280;68451;49.510;6.026;2023-12-07T07:03:08;98395.69;;;0.83
79053;BMP280;68451;49.510;6.026;2023-12-07T07:05:34;98374.03;;;0.68
79053;BMP280;68451;49.510;6.026;2023-12-07T07:08:01;98360.31;;;0.59
79053;BMP280;68451;49.510;6.026;2023-12-07T07:10:28;98314.03;;;0.33
79053;BMP280;68451;49.510;6.026;2023-12-07T07:12:59;98392.88;;;0.76
79053;BMP280;68451;49.510;6.026;2023-12-07T07:15:27;98210.66;;;-0.30
79053;BMP280;68451;49.510;6.026;2023-12-07T07:17:54;98375.44;;;0.62
79053;BMP280;68451;49.510;6.026;2023-12-07T07:20:21;98317.06;;;0.11
79053;BMP280;68451;49.510;6.026;2023-12-07T07:22:48;98374.00;;;0.42
79053;BMP280;68451;49.510;6.026;2023-12-07T07:25:16;98367.97;;;0.33
79053;BMP280;68451;49.510;6.026;2023-12-07T07:27:46;98290.94;;;-0.20
79053;BMP280;68451;49.510;6.026;2023-12-07T07:30:13;98355.94;;;0.16
79053;BMP280;68451;49.510;6.026;2023-12-07T07:32:40;98339.59;;;-0.01
79053;BMP280;68451;49.510;6.026;2023-12-07T07:35:08;98326.44;;;-0.15
79053;BMP280;68451;49.510;6.026;2023-12-07T07:37:35;98292.00;;;-0.40
79053;BMP280;68451;49.510;6.026;2023-12-07T07:40:02;98192.88;;;-0.94
79053;BMP280;68451;49.510;6.026;2023-12-07T07:42:33;98361.66;;;0.10
79053;BMP280;68451;49.510;6.026;2023-12-07T07:45:01;98409.31;;;0.40
79053;BMP280;68451;49.510;6.026;2023-12-07T07:47:27;98327.25;;;-0.15
79053;BMP280;68451;49.510;6.026;2023-12-07T07:49:55;98205.34;;;-0.81
79053;BMP280;68451;49.510;6.026;2023-12-07T07:52:22;98309.66;;;-0.10
79053;BMP280;68451;49.510;6.026;2023-12-07T07:54:49;98396.72;;;0.37
79053;BMP280;68451;49.510;6.026;2023-12-07T07:57:16;98193.91;;;-0.87
79053;BMP280;68451;49.510;6.026;2023-12-07T07:59:43;98355.44;;;0.13
79053;BMP280;68451;49.510;6.026;2023-12-07T08:02:10;98319.91;;;-0.10
79053;BMP280;68451;49.510;6.026;2023-12-07T08:04:37;98116.13;;;-1.41
79053;BMP280;68451;49.510;6.026;2023-12-07T08:07:04;98375.44;;;0.27
79053;BMP280;68451;49.510;6.026;2023-12-07T08:09:31;98370.47;;;0.25
79053;BMP280;68451;49.510;6.026;2023-12-07T08:11:58;98293.81;;;-0.23
79053;BMP280;68451;49.510;6.026;2023-12-07T08:14:26;98373.56;;;0.29
79053;BMP280;68451;49.510;6.026;2023-12-07T08:16:54;98322.25;;;0.02
79053;BMP280;68451;49.510;6.026;2023-12-07T08:19:22;98272.22;;;-0.30
79053;BMP280;68451;49.510;6.026;2023-12-07T08:21:50;98392.78;;;0.42
79053;BMP280;68451;49.510;6.026;2023-12-07T08:24:17;98390.66;;;0.38
79053;BMP280;68451;49.510;6.026;2023-12-07T08:26:44;98337.28;;;-0.04
79053;BMP280;68451;49.510;6.026;2023-12-07T08:29:11;98334.09;;;0.12
79053;BMP280;68451;49.510;6.026;2023-12-07T08:31:40;98228.75;;;-0.49
79053;BMP280;68451;49.510;6.026;2023-12-07T08:34:07;98283.63;;;0.03
79053;BMP280;68451;49.510;6.026;2023-12-07T08:36:34;98194.09;;;-0.53
79053;BMP280;68451;49.510;6.026;2023-12-07T08:39:01;98250.38;;;-0.16
79053;BMP280;68451;49.510;6.026;2023-12-07T08:41:28;98327.63;;;0.26
79053;BMP280;68451;49.510;6.026;2023-12-07T08:43:55;98336.34;;;0.33
79053;BMP280;68451;49.510;6.026;2023-12-07T08:46:22;98331.34;;;0.14
79053;BMP280;68451;49.510;6.026;2023-12-07T08:48:49;98300.66;;;0.04
79053;BMP280;68451;49.510;6.026;2023-12-07T08:51:16;98305.69;;;0.14
79053;BMP280;68451;49.510;6.026;2023-12-07T08:53:44;98324.97;;;0.35
79053;BMP280;68451;49.510;6.026;2023-12-07T08:56:14;98019.00;;;-1.52
79053;BMP280;68451;49.510;6.026;2023-12-07T08:58:41;98232.56;;;-0.18
79053;BMP280;68451;49.510;6.026;2023-12-07T09:01:08;98283.81;;;0.27
79053;BMP280;68451;49.510;6.026;2023-12-07T09:03:45;98235.66;;;-0.14
79053;BMP280;68451;49.510;6.026;2023-12-07T09:06:12;98275.53;;;0.16
79053;BMP280;68451;49.510;6.026;2023-12-07T09:08:39;97970.03;;;-1.84
79053;BMP280;68451;49.510;6.026;2023-12-07T09:11:06;98265.16;;;-0.01
79053;BMP280;68451;49.510;6.026;2023-12-07T09:13:33;98281.34;;;0.18
79053;BMP280;68451;49.510;6.026;2023-12-07T09:15:59;98116.22;;;-0.87
79053;BMP280;68451;49.510;6.026;2023-12-07T09:18:26;98166.63;;;-0.61
79053;BMP280;68451;49.510;6.026;2023-12-07T09:20:53;98310.16;;;0.29
79053;BMP280;68451;49.510;6.026;2023-12-07T09:23:20;98334.50;;;0.43
79053;BMP280;68451;49.510;6.026;2023-12-07T09:25:47;98337.38;;;0.40
79053;BMP280;68451;49.510;6.026;2023-12-07T09:28:14;98333.56;;;0.44
79053;BMP280;68451;49.510;6.026;2023-12-07T09:30:41;98306.19;;;0.35
79053;BMP280;68451;49.510;6.026;2023-12-07T09:33:08;98164.84;;;-0.42
79053;BMP280;68451;49.510;6.026;2023-12-07T09:35:35;98262.91;;;0.05
79053;BMP280;68451;49.510;6.026;2023-12-07T09:38:02;98297.44;;;0.28
79053;BMP280;68451;49.510;6.026;2023-12-07T09:40:29;98265.28;;;0.16
79053;BMP280;68451;49.510;6.026;2023-12-07T09:42:57;98270.25;;;0.17
79053;BMP280;68451;49.510;6.026;2023-12-07T09:45:24;98309.41;;;0.37
79053;BMP280;68451;49.510;6.026;2023-12-07T09:47:54;98185.00;;;-0.30
79053;BMP280;68451;49.510;6.026;2023-12-07T09:50:23;98292.34;;;0.54
79053;BMP280;68451;49.510;6.026;2023-12-07T09:52:52;98291.16;;;0.66
79053;BMP280;68451;49.510;6.026;2023-12-07T09:55:33;98014.72;;;-1.16
79053;BMP280;68451;49.510;6.026;2023-12-07T09:58:03;98287.09;;;0.37
79053;BMP280;68451;49.510;6.026;2023-12-07T10:00:30;98307.97;;;0.60
79053;BMP280;68451;49.510;6.026;2023-12-07T10:02:57;98294.63;;;0.57
79053;BMP280;68451;49.510;6.026;2023-12-07T10:05:24;98280.75;;;0.50
79053;BMP280;68451;49.510;6.026;2023-12-07T10:07:51;98275.56;;;0.41
79053;BMP280;68451;49.510;6.026;2023-12-07T10:10:20;98290.69;;;0.44
79053;BMP280;68451;49.510;6.026;2023-12-07T10:12:54;98276.91;;;0.28
79053;BMP280;68451;49.510;6.026;2023-12-07T10:15:22;98284.66;;;0.36
79053;BMP280;68451;49.510;6.026;2023-12-07T10:17:52;98315.63;;;0.52
79053;BMP280;68451;49.510;6.026;2023-12-07T10:20:22;98124.56;;;-0.68
79053;BMP280;68451;49.510;6.026;2023-12-07T10:23:05;98297.38;;;0.37
79053;BMP280;68451;49.510;6.026;2023-12-07T10:25:35;98100.53;;;-0.84
79053;BMP280;68451;49.510;6.026;2023-12-07T10:28:02;98296.78;;;0.43
79053;BMP280;68451;49.510;6.026;2023-12-07T10:30:34;98235.34;;;0.07
79053;BMP280;68451;49.510;6.026;2023-12-07T10:33:04;98259.09;;;0.26
79053;BMP280;68451;49.510;6.026;2023-12-07T10:35:40;98235.41;;;0.15
79053;BMP280;68451;49.510;6.026;2023-12-07T10:38:09;98296.69;;;0.53
79053;BMP280;68451;49.510;6.026;2023-12-07T10:40:36;98253.16;;;0.26
79053;BMP280;68451;49.510;6.026;2023-12-07T10:43:08;98257.97;;;0.29
79053;BMP280;68451;49.510;6.026;2023-12-07T10:45:36;98179.41;;;-0.08
79053;BMP280;68451;49.510;6.026;2023-12-07T10:48:08;98224.00;;;0.35
79053;BMP280;68451;49.510;6.026;2023-12-07T10:50:41;98199.50;;;0.23
79053;BMP280;68451;49.510;6.026;2023-12-07T10:55:48;98071.78;;;-0.53
79053;BMP280;68451;49.510;6.026;2023-12-07T10:58:17;98208.50;;;0.44
79053;BMP280;68451;49.510;6.026;2023-12-07T11:00:45;98192.09;;;0.45
79053;BMP280;68451;49.510;6.026;2023-12-07T11:03:16;98101.50;;;0.02
79053;BMP280;68451;49.510;6.026;2023-12-07T11:05:48;98229.59;;;0.90
79053;BMP280;68451;49.510;6.026;2023-12-07T11:08:44;98048.69;;;-0.09
79053;BMP280;68451;49.510;6.026;2023-12-07T11:14:09;98230.31;;;1.08
79053;BMP280;68451;49.510;6.026;2023-12-07T11:16:45;98207.16;;;1.00
79053;BMP280;68451;49.510;6.026;2023-12-07T11:22:07;98172.88;;;0.83
79053;BMP280;68451;49.510;6.026;2023-12-07T11:24:35;98155.81;;;0.74
79053;BMP280;68451;49.510;6.026;2023-12-07T11:27:03;98212.00;;;1.11
79053;BMP280;68451;49.510;6.026;2023-12-07T11:29:31;98138.72;;;0.57
79053;BMP280;68451;49.510;6.026;2023-12-07T11:32:02;98189.34;;;1.07
79053;BMP280;68451;49.510;6.026;2023-12-07T11:34:43;98178.41;;;1.05
79053;BMP280;68451;49.510;6.026;2023-12-07T11:37:15;98192.56;;;1.17
79053;BMP280;68451;49.510;6.026;2023-12-07T11:39:46;98188.72;;;1.21
79053;BMP280;68451;49.510;6.026;2023-12-07T11:42:18;98188.44;;;1.32
79053;BMP280;68451;49.510;6.026;2023-12-07T11:44:50;98199.69;;;1.39
79053;BMP280;68451;49.510;6.026;2023-12-07T11:47:20;98174.91;;;1.22
79053;BMP280;68451;49.510;6.026;2023-12-07T11:49:47;98130.19;;;1.07
79053;BMP280;68451;49.510;6.026;2023-12-07T11:52:19;98140.44;;;0.99
79053;BMP280;68451;49.510;6.026;2023-12-07T11:54:47;98188.09;;;1.35
79053;BMP280;68451;49.510;6.026;2023-12-07T11:57:15;98098.81;;;0.95
79053;BMP280;68451;49.510;6.026;2023-12-07T11:59:46;98157.91;;;1.37
79053;BMP280;68451;49.510;6.026;2023-12-07T12:02:15;98061.22;;;0.86
79053;BMP280;68451;49.510;6.026;2023-12-07T12:04:43;98115.75;;;1.30
79053;BMP280;68451;49.510;6.026;2023-12-07T12:07:11;98110.13;;;1.26
79053;BMP280;68451;49.510;6.026;2023-12-07T12:09:38;98034.41;;;0.88
79053;BMP280;68451;49.510;6.026;2023-12-07T12:12:05;97818.09;;;-0.54
79053;BMP280;68451;49.510;6.026;2023-12-07T12:14:32;98114.31;;;1.35
79053;BMP280;68451;49.510;6.026;2023-12-07T12:17:00;98096.31;;;1.35
79053;BMP280;68451;49.510;6.026;2023-12-07T12:19:27;98121.88;;;1.37
79053;BMP280;68451;49.510;6.026;2023-12-07T12:22:03;98108.06;;;1.38
79053;BMP280;68451;49.510;6.026;2023-12-07T12:24:35;98081.66;;;1.12
79053;BMP280;68451;49.510;6.026;2023-12-07T12:27:03;98080.69;;;1.13
79053;BMP280;68451;49.510;6.026;2023-12-07T12:29:32;98069.78;;;1.03
79053;BMP280;68451;49.510;6.026;2023-12-07T12:32:02;97981.00;;;0.50
79053;BMP280;68451;49.510;6.026;2023-12-07T12:34:32;98043.75;;;0.98
79053;BMP280;68451;49.510;6.026;2023-12-07T12:37:01;98110.63;;;1.46
79053;BMP280;68451;49.510;6.026;2023-12-07T12:39:29;98037.31;;;0.94
79053;BMP280;68451;49.510;6.026;2023-12-07T12:42:01;98033.94;;;1.09
79053;BMP280;68451;49.510;6.026;2023-12-07T12:44:30;98076.72;;;1.43
79053;BMP280;68451;49.510;6.026;2023-12-07T12:47:07;97889.00;;;0.45
79053;BMP280;68451;49.510;6.026;2023-12-07T12:49:39;98047.94;;;1.47
79053;BMP280;68451;49.510;6.026;2023-12-07T12:52:10;98027.63;;;1.52
79053;BMP280;68451;49.510;6.026;2023-12-07T12:54:39;98046.16;;;1.56
79053;BMP280;68451;49.510;6.026;2023-12-07T12:57:09;97991.50;;;1.29
79053;BMP280;68451;49.510;6.026;2023-12-07T12:59:36;98009.50;;;1.46
79053;BMP280;68451;49.510;6.026;2023-12-07T13:02:04;97833.94;;;0.32
79053;BMP280;68451;49.510;6.026;2023-12-07T13:04:32;98000.78;;;1.39
79053;BMP280;68451;49.510;6.026;2023-12-07T13:07:03;97981.72;;;1.25
79053;BMP280;68451;49.510;6.026;2023-12-07T13:09:31;97817.72;;;0.15
79053;BMP280;68451;49.510;6.026;2023-12-07T13:11:59;97986.84;;;1.17
79053;BMP280;68451;49.510;6.026;2023-12-07T13:14:31;97948.13;;;1.18
79053;BMP280;68451;49.510;6.026;2023-12-07T13:17:03;97959.66;;;1.30
79053;BMP280;68451;49.510;6.026;2023-12-07T13:19:31;97947.47;;;1.24
79053;BMP280;68451;49.510;6.026;2023-12-07T13:22:01;97916.78;;;1.15
79053;BMP280;68451;49.510;6.026;2023-12-07T13:24:30;97980.03;;;1.64
79053;BMP280;68451;49.510;6.026;2023-12-07T13:26:57;97957.88;;;1.47
79053;BMP280;68451;49.510;6.026;2023-12-07T13:29:27;97933.91;;;1.39
79053;BMP280;68451;49.510;6.026;2023-12-07T13:32:03;97762.53;;;0.43
79053;BMP280;68451;49.510;6.026;2023-12-07T13:34:30;97934.53;;;1.49
79053;BMP280;68451;49.510;6.026;2023-12-07T13:36:57;97786.28;;;0.62
79053;BMP280;68451;49.510;6.026;2023-12-07T13:39:26;97907.03;;;1.49
79053;BMP280;68451;49.510;6.026;2023-12-07T13:41:58;97930.81;;;1.59
79053;BMP280;68451;49.510;6.026;2023-12-07T13:44:29;97898.88;;;1.46
79053;BMP280;68451;49.510;6.026;2023-12-07T13:46:59;97876.84;;;1.35
79053;BMP280;68451;49.510;6.026;2023-12-07T13:49:26;97862.91;;;1.21
79053;BMP280;68451;49.510;6.026;2023-12-07T13:52:01;97890.19;;;1.39
79053;BMP280;68451;49.510;6.026;2023-12-07T13:54:35;97753.81;;;0.61
79053;BMP280;68451;49.510;6.026;2023-12-07T13:57:05;97877.00;;;1.42
79053;BMP280;68451;49.510;6.026;2023-12-07T13:59:35;97851.97;;;1.27
79053;BMP280;68451;49.510;6.026;2023-12-07T14:02:04;97877.47;;;1.45
79053;BMP280;68451;49.510;6.026;2023-12-07T14:04:31;97872.97;;;1.47
79053;BMP280;68451;49.510;6.026;2023-12-07T14:07:15;97743.56;;;0.61
79053;BMP280;68451;49.510;6.026;2023-12-07T14:09:47;97892.25;;;1.51
79053;BMP280;68451;49.510;6.026;2023-12-07T14:12:23;97680.09;;;0.22
79053;BMP280;68451;49.510;6.026;2023-12-07T14:14:51;97711.31;;;0.42
79053;BMP280;68451;49.510;6.026;2023-12-07T14:17:18;97687.44;;;0.25
79053;BMP280;68451;49.510;6.026;2023-12-07T14:19:47;97861.44;;;1.35
79053;BMP280;68451;49.510;6.026;2023-12-07T14:22:21;97853.09;;;1.33
79053;BMP280;68451;49.510;6.026;2023-12-07T14:24:49;97888.69;;;1.52
79053;BMP280;68451;49.510;6.026;2023-12-07T14:27:15;97897.41;;;1.51
79053;BMP280;68451;49.510;6.026;2023-12-07T14:29:42;97877.81;;;1.42
79053;BMP280;68451;49.510;6.026;2023-12-07T14:32:09;97743.41;;;0.62